createdAt,value
2018-12-05T00:00:05.071Z,88.28
2018-12-05T00:01:15.109Z,88.18
2018-12-05T00:02:25.035Z,88.93
2018-12-05T00:03:34.964Z,88.46
2018-12-05T00:04:44.890Z,89.22
2018-12-05T00:05:54.894Z,89.4
2018-12-05T00:07:04.872Z,88.37
2018-12-05T00:08:14.799Z,88.09
2018-12-05T00:09:24.729Z,88.84
2018-12-05T00:10:34.665Z,89.88
2018-12-05T00:11:44.596Z,88.84
2018-12-05T00:12:54.585Z,88.28
2018-12-05T00:14:04.523Z,88.46
2018-12-05T00:15:14.531Z,88.18
2018-12-05T00:16:24.458Z,88.37
2018-12-05T00:17:36.117Z,87.8
2018-12-05T00:18:46.109Z,87.33
2018-12-05T00:19:56.044Z,87.85
2018-12-05T00:21:05.982Z,87.85
2018-12-05T00:22:15.922Z,87.24
2018-12-05T00:23:25.921Z,87.24
2018-12-05T00:24:35.901Z,86.86
2018-12-05T00:25:45.831Z,86.99
2018-12-05T00:26:55.775Z,86.95
2018-12-05T00:28:05.705Z,87.43
2018-12-05T00:29:15.635Z,87.33
2018-12-05T00:30:25.467Z,87.33
2018-12-05T00:31:35.395Z,87.43
2018-12-05T00:32:45.319Z,87.52
2018-12-05T00:33:55.247Z,86.48
2018-12-05T00:35:05.168Z,86.33
2018-12-05T00:36:15.252Z,87.28
2018-12-05T00:37:25.183Z,87.14
2018-12-05T00:38:35.110Z,86.86
2018-12-05T00:39:45.044Z,86.9
2018-12-05T00:40:55.767Z,87.28
2018-12-05T00:42:05.850Z,87.28
2018-12-05T00:43:15.782Z,86.52
2018-12-05T00:44:25.707Z,86.8
2018-12-05T00:45:35.642Z,86.62
2018-12-05T00:46:45.577Z,87.09
2018-12-05T00:47:55.673Z,86.9
2018-12-05T00:49:05.598Z,87.8
2018-12-05T00:50:15.532Z,86.57
2018-12-05T00:51:25.456Z,86.9
2018-12-05T00:52:35.459Z,86.76
2018-12-05T00:53:45.392Z,86.9
2018-12-05T00:54:55.382Z,87.33
2018-12-05T00:56:05.330Z,87.14
2018-12-05T00:57:15.259Z,87.33
2018-12-05T00:58:25.271Z,87.24
2018-12-05T00:59:35.349Z,86.38
2018-12-05T01:00:45.278Z,86.67
2018-12-05T01:01:55.209Z,86.86
2018-12-05T01:03:05.140Z,86.33
2018-12-05T01:04:15.070Z,85.68
2018-12-05T01:05:25.095Z,85.72
2018-12-05T01:06:35.023Z,84.03
2018-12-05T01:07:44.953Z,83.4
2018-12-05T01:08:54.881Z,84.26
2018-12-05T01:10:04.558Z,83.97
2018-12-05T01:11:14.535Z,83.78
2018-12-05T01:12:24.495Z,83.69
2018-12-05T01:13:34.422Z,84.26
2018-12-05T01:14:44.352Z,83.97
2018-12-05T01:15:54.277Z,83.59
2018-12-05T01:17:04.304Z,83.4
2018-12-05T01:18:14.232Z,83.03
2018-12-05T01:19:24.162Z,83.78
2018-12-05T01:20:34.229Z,84.26
2018-12-05T01:21:44.157Z,84.07
2018-12-05T01:22:54.306Z,84.35
2018-12-05T01:24:04.239Z,84.35
2018-12-05T01:25:14.165Z,84.35
2018-12-05T01:26:24.095Z,84.07
2018-12-05T01:27:34.020Z,84.64
2018-12-05T01:28:44.003Z,84.73
2018-12-05T01:29:53.929Z,83.78
2018-12-05T01:31:03.862Z,83.4
2018-12-05T01:32:13.786Z,84.26
2018-12-05T01:33:23.810Z,84.07
2018-12-05T01:34:33.897Z,84.16
2018-12-05T01:35:43.827Z,84.07
2018-12-05T01:36:53.754Z,84.16
2018-12-05T01:38:03.682Z,84.35
2018-12-05T01:39:13.615Z,84.16
2018-12-05T01:40:23.793Z,83.97
2018-12-05T01:41:33.467Z,84.16
2018-12-05T01:42:43.395Z,84.82
2018-12-05T01:43:53.326Z,85.2
2018-12-05T01:45:03.253Z,84.73
2018-12-05T01:46:13.289Z,85.11
2018-12-05T01:47:23.217Z,85.86
2018-12-05T01:48:33.154Z,86.62
2018-12-05T01:49:43.078Z,86.01
2018-12-05T01:50:53.002Z,86.57
2018-12-05T01:52:03.082Z,86.01
2018-12-05T01:53:13.012Z,86.19
2018-12-05T01:54:22.940Z,86.38
2018-12-05T01:55:32.865Z,85.91
2018-12-05T01:56:42.796Z,86.29
2018-12-05T01:57:52.874Z,86.38
2018-12-05T01:59:02.808Z,86.95
2018-12-05T02:00:12.739Z,86.76
2018-12-05T02:01:22.666Z,86.67
2018-12-05T02:02:32.597Z,86.48
2018-12-05T02:03:42.660Z,86.38
2018-12-05T02:04:52.587Z,86.38
2018-12-05T02:06:02.528Z,86.38
2018-12-05T02:07:12.464Z,86.57
2018-12-05T02:08:22.455Z,86.57
2018-12-05T02:09:32.447Z,85.53
2018-12-05T02:10:42.374Z,85.72
2018-12-05T02:11:52.301Z,85.16
2018-12-05T02:13:02.227Z,85.63
2018-12-05T02:14:12.172Z,85.63
2018-12-05T02:15:22.260Z,85.25
2018-12-05T02:16:32.190Z,85.25
2018-12-05T02:17:42.125Z,85.06
2018-12-05T02:18:52.051Z,84.5
2018-12-05T02:20:01.984Z,84.26
2018-12-05T02:21:11.968Z,84.88
2018-12-05T02:22:21.894Z,84.78
2018-12-05T02:23:31.826Z,84.88
2018-12-05T02:24:41.755Z,84.12
2018-12-05T02:25:51.680Z,84.92
2018-12-05T02:27:01.755Z,85.25
2018-12-05T02:28:11.680Z,85.72
2018-12-05T02:29:21.605Z,85.77
2018-12-05T02:30:31.528Z,85.77
2018-12-05T02:31:41.479Z,85.63
2018-12-05T02:32:51.456Z,85.63
2018-12-05T02:34:01.392Z,85.91
2018-12-05T02:35:11.325Z,86.38
2018-12-05T02:36:21.252Z,86.38
2018-12-05T02:37:31.185Z,86.1
2018-12-05T02:38:41.173Z,85.35
2018-12-05T02:39:51.107Z,84.88
2018-12-05T02:41:01.038Z,84.97
2018-12-05T02:42:10.975Z,84.97
2018-12-05T02:43:20.909Z,85.25
2018-12-05T02:44:30.948Z,85.44
2018-12-05T02:45:40.879Z,85.82
2018-12-05T02:46:50.819Z,86.48
2018-12-05T02:48:00.750Z,85.25
2018-12-05T02:49:10.719Z,84.59
2018-12-05T02:50:20.697Z,84.12
2018-12-05T02:51:30.626Z,84.88
2018-12-05T02:52:40.565Z,84.59
2018-12-05T02:53:50.511Z,84.78
2018-12-05T02:55:00.446Z,84.03
2018-12-05T02:56:10.534Z,84.97
2018-12-05T02:57:20.460Z,84.97
2018-12-05T02:58:30.399Z,85.63
2018-12-05T02:59:40.334Z,85.63
2018-12-05T03:00:50.264Z,85.82
2018-12-05T03:02:00.254Z,86.01
2018-12-05T03:03:10.201Z,85.91
2018-12-05T03:04:20.136Z,86.38
2018-12-05T03:05:29.840Z,85.72
2018-12-05T03:06:39.836Z,86.38
2018-12-05T03:07:49.934Z,86.38
2018-12-05T03:08:59.882Z,86.38
2018-12-05T03:10:09.824Z,86.86
2018-12-05T03:11:19.775Z,87.52
2018-12-05T03:12:29.711Z,87.8
2018-12-05T03:13:39.757Z,87.8
2018-12-05T03:14:49.776Z,88.37
2018-12-05T03:15:59.701Z,88.46
2018-12-05T03:17:09.643Z,87.9
2018-12-05T03:18:19.577Z,88.18
2018-12-05T03:19:29.566Z,87.8
2018-12-05T03:20:39.502Z,86.95
2018-12-05T03:21:49.433Z,86.67
2018-12-05T03:22:59.369Z,86.19
2018-12-05T03:24:09.310Z,86.29
2018-12-05T03:25:19.346Z,86.38
2018-12-05T03:26:29.280Z,85.06
2018-12-05T03:27:39.222Z,85.63
2018-12-05T03:28:49.149Z,85.82
2018-12-05T03:29:59.083Z,85.63
2018-12-05T03:31:09.197Z,85.44
2018-12-05T03:32:19.170Z,85.53
2018-12-05T03:33:29.172Z,85.91
2018-12-05T03:34:39.129Z,85.16
2018-12-05T03:35:49.065Z,85.16
2018-12-05T03:36:59.144Z,85.25
2018-12-05T03:38:09.095Z,84.69
2018-12-05T03:39:19.044Z,84.97
2018-12-05T03:40:28.993Z,84.97
2018-12-05T03:41:38.925Z,85.06
2018-12-05T03:42:48.708Z,86.1
2018-12-05T03:43:58.640Z,85.82
2018-12-05T03:45:08.569Z,85.16
2018-12-05T03:46:18.504Z,84.88
2018-12-05T03:47:28.455Z,85.44
2018-12-05T03:48:38.457Z,84.69
2018-12-05T03:49:48.399Z,85.25
2018-12-05T03:50:58.324Z,84.78
2018-12-05T03:52:08.283Z,84.78
2018-12-05T03:53:18.224Z,84.59
2018-12-05T03:54:28.214Z,85.16
2018-12-05T03:55:40.923Z,85.25
2018-12-05T03:56:50.851Z,84.88
2018-12-05T03:58:00.789Z,84.78
2018-12-05T03:59:10.729Z,84.78
2018-12-05T04:00:20.805Z,84.5
2018-12-05T04:01:30.553Z,84.03
2018-12-05T04:02:40.491Z,84.03
2018-12-05T04:03:50.414Z,83.36
2018-12-05T04:05:00.344Z,83.36
2018-12-05T04:06:10.330Z,82.8
2018-12-05T04:07:20.255Z,82.89
2018-12-05T04:08:30.180Z,82.32
2018-12-05T04:09:40.148Z,82.51
2018-12-05T04:10:50.440Z,82.65
2018-12-05T04:12:00.197Z,82.84
2018-12-05T04:13:10.126Z,82.56
2018-12-05T04:14:20.065Z,82.28
2018-12-05T04:15:30.095Z,82.28
2018-12-05T04:16:40.067Z,82.09
2018-12-05T04:17:50.156Z,82.04
2018-12-05T04:18:59.908Z,82.28
2018-12-05T04:20:09.838Z,82.18
2018-12-05T04:21:19.771Z,81.61
2018-12-05T04:22:29.737Z,81.9
2018-12-05T04:23:39.738Z,82.46
2018-12-05T04:24:49.713Z,81.8
2018-12-05T04:25:59.650Z,81.85
2018-12-05T04:27:09.585Z,82.23
2018-12-05T04:28:19.521Z,82.23
2018-12-05T04:29:29.504Z,82.23
2018-12-05T04:30:39.433Z,82.61
2018-12-05T04:31:49.404Z,82.89
2018-12-05T04:32:59.414Z,82.42
2018-12-05T04:34:09.397Z,82.7
2018-12-05T04:35:19.490Z,82.7
2018-12-05T04:36:29.427Z,83.46
2018-12-05T04:37:39.356Z,83.08
2018-12-05T04:38:49.299Z,83.36
2018-12-05T04:39:59.245Z,83.36
2018-12-05T04:41:09.725Z,83.27
2018-12-05T04:42:19.653Z,84.03
2018-12-05T04:43:29.585Z,84.03
2018-12-05T04:44:39.518Z,84.03
2018-12-05T04:45:49.463Z,84.12
2018-12-05T04:46:59.446Z,84.69
2018-12-05T04:48:09.380Z,83.93
2018-12-05T04:49:19.324Z,83.84
2018-12-05T04:50:29.259Z,84.31
2018-12-05T04:51:39.741Z,84.69
2018-12-05T04:52:49.741Z,84.78
2018-12-05T04:53:59.667Z,84.88
2018-12-05T04:55:09.687Z,84.69
2018-12-05T04:56:19.729Z,84.97
2018-12-05T04:57:29.680Z,85.06
2018-12-05T04:58:39.523Z,84.88
2018-12-05T04:59:49.458Z,85.16
2018-12-05T05:00:59.391Z,85.44
2018-12-05T05:02:09.325Z,85.63
2018-12-05T05:03:19.258Z,85.35
2018-12-05T05:04:29.203Z,84.88
2018-12-05T05:05:39.140Z,84.88
2018-12-05T05:06:49.075Z,84.12
2018-12-05T05:07:59.007Z,84.12
2018-12-05T05:09:08.946Z,84.5
2018-12-05T05:10:19.035Z,84.5
2018-12-05T05:11:28.969Z,84.22
2018-12-05T05:12:38.915Z,84.31
2018-12-05T05:13:48.870Z,84.5
2018-12-05T05:14:58.555Z,84.41
2018-12-05T05:16:08.635Z,84.78
2018-12-05T05:17:18.564Z,84.88
2018-12-05T05:18:28.520Z,85.06
2018-12-05T05:19:38.447Z,84.97
2018-12-05T05:20:48.376Z,85.25
2018-12-05T05:21:58.371Z,84.88
2018-12-05T05:23:08.396Z,84.78
2018-12-05T05:24:18.329Z,84.78
2018-12-05T05:25:28.283Z,84.97
2018-12-05T05:26:38.211Z,84.88
2018-12-05T05:27:48.594Z,84.78
2018-12-05T05:28:58.529Z,85.06
2018-12-05T05:30:08.472Z,84.12
2018-12-05T05:31:18.419Z,84.22
2018-12-05T05:32:28.864Z,84.31
2018-12-05T05:33:38.957Z,84.12
2018-12-05T05:34:48.889Z,84.12
2018-12-05T05:35:58.814Z,84.41
2018-12-05T05:37:08.745Z,84.12
2018-12-05T05:38:18.682Z,84.03
2018-12-05T05:39:28.726Z,84.88
2018-12-05T05:40:38.662Z,85.72
2018-12-05T05:41:48.589Z,85.72
2018-12-05T05:42:58.514Z,86.01
2018-12-05T05:44:08.448Z,86.1
2018-12-05T05:45:18.432Z,85.91
2018-12-05T05:46:28.370Z,84.97
2018-12-05T05:47:38.298Z,85.82
2018-12-05T05:48:48.232Z,85.44
2018-12-05T05:49:58.157Z,86.1
2018-12-05T05:51:08.185Z,86.48
2018-12-05T05:52:18.117Z,85.63
2018-12-05T05:53:28.048Z,86.29
2018-12-05T05:54:37.977Z,86.01
2018-12-05T05:55:47.909Z,85.63
2018-12-05T05:56:58.010Z,85.63
2018-12-05T05:58:07.937Z,85.91
2018-12-05T05:59:17.874Z,85.82
2018-12-05T06:00:27.800Z,86.48
2018-12-05T06:01:37.734Z,86.76
2018-12-05T06:02:47.710Z,86.67
2018-12-05T06:03:57.647Z,86.38
2018-12-05T06:05:07.572Z,86.29
2018-12-05T06:06:17.503Z,86.48
2018-12-05T06:07:27.436Z,86.57
2018-12-05T06:08:37.410Z,86.48
2018-12-05T06:09:47.333Z,86.48
2018-12-05T06:10:57.258Z,85.91
2018-12-05T06:12:06.928Z,86.67
2018-12-05T06:13:16.854Z,86.1
2018-12-05T06:14:26.886Z,86.76
2018-12-05T06:15:36.816Z,86.86
2018-12-05T06:16:46.749Z,86.57
2018-12-05T06:17:56.698Z,86.86
2018-12-05T06:19:07.782Z,86.48
2018-12-05T06:20:17.820Z,86.95
2018-12-05T06:21:27.752Z,86.86
2018-12-05T06:22:37.679Z,87.14
2018-12-05T06:23:47.608Z,87.43
2018-12-05T06:24:57.537Z,87.33
2018-12-05T06:26:07.525Z,86.95
2018-12-05T06:27:17.452Z,87.33
2018-12-05T06:28:27.127Z,86.76
2018-12-05T06:29:37.060Z,86.76
2018-12-05T06:30:46.993Z,86.95
2018-12-05T06:31:57.134Z,87.05
2018-12-05T06:33:07.067Z,86.29
2018-12-05T06:34:17.086Z,86.01
2018-12-05T06:35:27.017Z,85.06
2018-12-05T06:36:36.946Z,84.12
2018-12-05T06:37:47.034Z,84.03
2018-12-05T06:38:58.633Z,83.55
2018-12-05T06:40:09.374Z,82.8
2018-12-05T06:41:19.309Z,82.32
2018-12-05T06:42:29.238Z,82.8
2018-12-05T06:43:39.263Z,82.61
2018-12-05T06:44:49.188Z,82.61
2018-12-05T06:45:59.116Z,82.7
2018-12-05T06:47:09.045Z,83.55
2018-12-05T06:48:18.727Z,84.22
2018-12-05T06:49:28.811Z,84.22
2018-12-05T06:50:38.745Z,83.55
2018-12-05T06:51:48.687Z,83.74
2018-12-05T06:52:58.628Z,83.27
2018-12-05T06:54:08.565Z,83.27
2018-12-05T06:55:18.548Z,84.31
2018-12-05T06:56:28.479Z,84.69
2018-12-05T06:57:38.407Z,84.78
2018-12-05T06:58:48.332Z,85.16
2018-12-05T06:59:58.348Z,85.35
2018-12-05T07:01:08.425Z,84.78
2018-12-05T07:02:18.360Z,84.5
2018-12-05T07:03:28.298Z,83.55
2018-12-05T07:04:38.228Z,83.46
2018-12-05T07:05:48.151Z,82.8
2018-12-05T07:06:58.133Z,82.8
2018-12-05T07:08:08.056Z,82.8
2018-12-05T07:09:17.985Z,83.27
2018-12-05T07:10:27.918Z,83.74
2018-12-05T07:11:37.598Z,83.55
2018-12-05T07:12:47.651Z,83.65
2018-12-05T07:13:57.579Z,83.36
2018-12-05T07:15:07.528Z,83.27
2018-12-05T07:16:17.470Z,83.55
2018-12-05T07:17:27.400Z,83.55
2018-12-05T07:18:37.475Z,82.32
2018-12-05T07:19:47.407Z,82.51
2018-12-05T07:20:57.340Z,82.32
2018-12-05T07:22:07.270Z,82.32
2018-12-05T07:23:17.260Z,81.85
2018-12-05T07:24:27.319Z,82.61
2018-12-05T07:25:37.253Z,82.51
2018-12-05T07:26:47.184Z,82.42
2018-12-05T07:27:57.112Z,82.42
2018-12-05T07:29:07.043Z,82.89
2018-12-05T07:30:17.120Z,82.42
2018-12-05T07:31:32.347Z,82.32
2018-12-05T07:32:42.367Z,82.23
2018-12-05T07:33:52.292Z,81.57
2018-12-05T07:35:02.229Z,81.67
2018-12-05T07:36:12.305Z,81.38
2018-12-05T07:37:22.240Z,80.63
2018-12-05T07:38:32.181Z,80.44
2018-12-05T07:39:42.111Z,80.63
2018-12-05T07:40:52.037Z,79.78
2018-12-05T07:42:02.063Z,79.3
2018-12-05T07:43:11.998Z,78.27
2018-12-05T07:44:21.930Z,78.4
2018-12-05T07:45:31.868Z,78.4
2018-12-05T07:46:41.803Z,79.53
2018-12-05T07:47:51.833Z,79.25
2018-12-05T07:49:01.767Z,79.63
2018-12-05T07:50:11.692Z,79.35
2018-12-05T07:51:23.532Z,79.82
2018-12-05T07:52:33.471Z,80.25
2018-12-05T07:53:43.557Z,80.06
2018-12-05T07:54:53.483Z,80.15
2018-12-05T07:56:03.416Z,80
2018-12-05T07:57:13.340Z,79.11
2018-12-05T07:58:23.293Z,79.87
2018-12-05T07:59:33.271Z,79.78
2018-12-05T08:00:43.219Z,80.15
2018-12-05T08:01:53.165Z,81.1
2018-12-05T08:03:04.300Z,81.48
2018-12-05T08:04:14.228Z,81.38
2018-12-05T08:05:24.309Z,81.67
2018-12-05T08:06:34.235Z,81.2
2018-12-05T08:07:44.160Z,79.68
2018-12-05T08:08:54.091Z,79.78
2018-12-05T08:10:04.022Z,79.78
2018-12-05T08:11:14.062Z,79.97
2018-12-05T08:12:23.998Z,79.97
2018-12-05T08:13:33.929Z,79.68
2018-12-05T08:14:43.856Z,79.78
2018-12-05T08:15:53.784Z,79.68
2018-12-05T08:17:03.561Z,80.06
2018-12-05T08:18:13.493Z,80.53
2018-12-05T08:19:23.421Z,80.44
2018-12-05T08:20:33.348Z,80.44
2018-12-05T08:21:43.278Z,80.44
2018-12-05T08:22:53.256Z,80.34
2018-12-05T08:24:03.191Z,80.82
2018-12-05T08:25:13.122Z,81.01
2018-12-05T08:26:23.149Z,80.82
2018-12-05T08:27:33.083Z,81.29
2018-12-05T08:28:43.162Z,80.25
2018-12-05T08:29:53.091Z,79.97
2018-12-05T08:31:03.019Z,79.97
2018-12-05T08:32:12.951Z,79.87
2018-12-05T08:33:22.623Z,80.06
2018-12-05T08:34:32.603Z,79.97
2018-12-05T08:35:42.535Z,79.59
2018-12-05T08:36:52.467Z,79.21
2018-12-05T08:38:03.051Z,78.36
2018-12-05T08:39:12.978Z,77.83
2018-12-05T08:40:22.963Z,77.08
2018-12-05T08:41:32.659Z,77.17
2018-12-05T08:42:42.596Z,76.42
2018-12-05T08:43:52.521Z,77.26
2018-12-05T08:45:02.445Z,77.36
2018-12-05T08:46:12.423Z,77.17
2018-12-05T08:47:22.353Z,76.79
2018-12-05T08:48:36.672Z,76.98
2018-12-05T08:49:46.599Z,77.55
2018-12-05T08:50:56.528Z,77.45
2018-12-05T08:52:06.559Z,78.02
2018-12-05T08:53:16.489Z,78.12
2018-12-05T08:54:26.419Z,78.12
2018-12-05T08:55:36.355Z,79.16
2018-12-05T08:56:46.285Z,79.63
2018-12-05T08:57:56.268Z,79.63
2018-12-05T08:59:06.199Z,80.19
2018-12-05T09:00:16.202Z,80.76
2018-12-05T09:01:26.247Z,80.76
2018-12-05T09:02:36.226Z,80.66
2018-12-05T09:03:46.260Z,81.14
2018-12-05T09:04:56.187Z,81.42
2018-12-05T09:06:06.111Z,81.71
2018-12-05T09:07:16.043Z,81.61
2018-12-05T09:08:25.977Z,81.33
2018-12-05T09:09:36.007Z,81.71
2018-12-05T09:10:45.934Z,81.14
2018-12-05T09:11:55.864Z,81.14
2018-12-05T09:13:05.801Z,81.71
2018-12-05T09:14:15.725Z,81.61
2018-12-05T09:15:31.769Z,81.42
2018-12-05T09:16:41.706Z,81.23
2018-12-05T09:17:51.643Z,80.48
2018-12-05T09:19:01.579Z,80.48
2018-12-05T09:20:11.593Z,80.48
2018-12-05T09:21:21.382Z,80.85
2018-12-05T09:22:31.325Z,80.29
2018-12-05T09:23:48.756Z,79.63
2018-12-05T09:24:58.685Z,79.91
2018-12-05T09:26:08.615Z,79.72
2018-12-05T09:27:18.556Z,79.72
2018-12-05T09:28:28.493Z,79.06
2018-12-05T09:29:38.437Z,79.44
2018-12-05T09:30:48.366Z,79.16
2018-12-05T09:31:58.304Z,79.25
2018-12-05T09:33:08.337Z,79.53
2018-12-05T09:34:18.266Z,79.06
2018-12-05T09:35:28.201Z,79.53
2018-12-05T09:36:38.163Z,79.82
2018-12-05T09:37:48.126Z,79.16
2018-12-05T09:38:57.852Z,79.91
2018-12-05T09:40:07.785Z,79.82
2018-12-05T09:41:17.716Z,79.53
2018-12-05T09:42:27.651Z,79.44
2018-12-05T09:43:37.583Z,79.25
2018-12-05T09:44:47.591Z,79.35
2018-12-05T09:45:57.516Z,79.16
2018-12-05T09:47:07.443Z,79.25
2018-12-05T09:48:23.525Z,79.06
2018-12-05T09:49:33.455Z,79.06
2018-12-05T09:50:43.434Z,79.53
2018-12-05T09:51:53.376Z,79.63
2018-12-05T09:53:03.316Z,79.53
2018-12-05T09:54:13.249Z,79.25
2018-12-05T09:55:23.191Z,79.16
2018-12-05T09:56:33.171Z,79.44
2018-12-05T09:57:43.105Z,78.97
2018-12-05T09:58:53.106Z,78.5
2018-12-05T10:00:03.050Z,78.4
2018-12-05T10:01:12.994Z,78.78
2018-12-05T10:02:22.973Z,78.31
2018-12-05T10:03:32.904Z,78.78
2018-12-05T10:04:42.832Z,78.78
2018-12-05T10:05:52.761Z,78.87
2018-12-05T10:07:02.690Z,79.16
2018-12-05T10:08:12.671Z,78.21
2018-12-05T10:09:22.637Z,77.83
2018-12-05T10:10:32.578Z,78.12
2018-12-05T10:11:42.510Z,77.74
2018-12-05T10:12:52.444Z,78.02
2018-12-05T10:14:02.472Z,78.02
2018-12-05T10:15:12.398Z,77.74
2018-12-05T10:16:22.326Z,77.31
2018-12-05T10:17:32.267Z,77.36
2018-12-05T10:18:42.194Z,77.36
2018-12-05T10:19:52.169Z,77.45
2018-12-05T10:21:02.104Z,77.26
2018-12-05T10:22:12.041Z,76.55
2018-12-05T10:23:21.978Z,77.02
2018-12-05T10:24:31.908Z,76.64
2018-12-05T10:25:41.434Z,77.02
2018-12-05T10:26:51.360Z,76.17
2018-12-05T10:28:01.288Z,76.26
2018-12-05T10:29:11.216Z,76.07
2018-12-05T10:30:21.144Z,75.6
2018-12-05T10:31:31.123Z,75.6
2018-12-05T10:32:46.940Z,75.04
2018-12-05T10:33:56.868Z,74.47
2018-12-05T10:35:06.796Z,74.28
2018-12-05T10:36:16.724Z,73.81
2018-12-05T10:37:26.705Z,73.43
2018-12-05T10:38:36.642Z,73.71
2018-12-05T10:39:46.585Z,73.9
2018-12-05T10:40:56.513Z,73.52
2018-12-05T10:42:06.441Z,73.81
2018-12-05T10:43:16.524Z,73.37
2018-12-05T10:44:26.459Z,72.9
2018-12-05T10:45:36.396Z,72.99
2018-12-05T10:46:46.325Z,71.95
2018-12-05T10:47:56.345Z,71.95
2018-12-05T10:49:06.429Z,71.95
2018-12-05T10:50:16.367Z,72.05
2018-12-05T10:51:26.297Z,72.71
2018-12-05T10:52:36.232Z,72.99
2018-12-05T10:53:46.180Z,72.43
2018-12-05T10:54:56.117Z,72.9
2018-12-05T10:56:06.046Z,72.62
2018-12-05T10:57:15.984Z,72.24
2018-12-05T10:58:25.921Z,71.86
2018-12-05T10:59:35.851Z,71.95
2018-12-05T11:00:45.591Z,72.05
2018-12-05T11:01:55.534Z,71.86
2018-12-05T11:03:05.466Z,72.24
2018-12-05T11:04:15.400Z,72.43
2018-12-05T11:05:25.332Z,72.8
2018-12-05T11:06:35.360Z,72.09
2018-12-05T11:07:45.296Z,71.67
2018-12-05T11:08:55.232Z,71.67
2018-12-05T11:10:05.175Z,71.61
2018-12-05T11:11:15.107Z,71.99
2018-12-05T11:12:25.191Z,72.18
2018-12-05T11:13:35.123Z,72.09
2018-12-05T11:14:45.056Z,71.99
2018-12-05T11:15:55.078Z,70.48
2018-12-05T11:17:04.855Z,70.48
2018-12-05T11:18:14.891Z,70.39
2018-12-05T11:19:24.829Z,70.39
2018-12-05T11:20:34.771Z,70.2
2018-12-05T11:21:52.079Z,70.76
2018-12-05T11:23:02.012Z,70.86
2018-12-05T11:24:12.005Z,71.04
2018-12-05T11:25:21.949Z,70.79
2018-12-05T11:26:31.900Z,70.89
2018-12-05T11:27:41.837Z,70.51
2018-12-05T11:28:51.526Z,70.32
2018-12-05T11:30:01.464Z,69.47
2018-12-05T11:31:11.399Z,68.62
2018-12-05T11:32:21.342Z,68.43
2018-12-05T11:33:31.285Z,67.39
2018-12-05T11:34:41.225Z,68.05
2018-12-05T11:35:51.268Z,67.77
2018-12-05T11:37:01.204Z,67.58
2018-12-05T11:38:11.140Z,67.01
2018-12-05T11:39:21.079Z,67.3
2018-12-05T11:40:31.014Z,67.11
2018-12-05T11:41:41.097Z,67.96
2018-12-05T11:42:51.031Z,67.01
2018-12-05T11:44:00.965Z,66.53
2018-12-05T11:45:10.922Z,67.01
2018-12-05T11:46:20.854Z,67.2
2018-12-05T11:47:30.949Z,66.86
2018-12-05T11:48:40.890Z,66.35
2018-12-05T11:49:50.579Z,65.81
2018-12-05T11:51:00.522Z,66.28
2018-12-05T11:52:10.467Z,66.28
2018-12-05T11:53:20.508Z,65.53
2018-12-05T11:54:30.523Z,65.91
2018-12-05T11:55:40.473Z,66.09
2018-12-05T11:56:50.409Z,64.87
2018-12-05T11:58:00.423Z,65.81
2018-12-05T11:59:10.380Z,65.72
2018-12-05T12:00:20.317Z,65.72
2018-12-05T12:01:30.257Z,66.09
2018-12-05T12:02:40.198Z,65.69
2018-12-05T12:03:50.133Z,66.06
2018-12-05T12:05:00.222Z,65.78
2018-12-05T12:06:10.162Z,66.35
2018-12-05T12:07:20.110Z,66.25
2018-12-05T12:08:30.040Z,66.53
2018-12-05T12:09:39.975Z,66.25
2018-12-05T12:10:50.006Z,66.35
2018-12-05T12:11:59.941Z,65.97
2018-12-05T12:13:09.881Z,66.25
2018-12-05T12:14:19.811Z,65.97
2018-12-05T12:15:29.748Z,66.63
2018-12-05T12:16:39.740Z,66.82
2018-12-05T12:17:49.681Z,67.77
2018-12-05T12:18:59.620Z,67.86
2018-12-05T12:20:09.556Z,68.21
2018-12-05T12:21:19.504Z,68.68
2018-12-05T12:22:29.547Z,69.53
2018-12-05T12:23:39.498Z,69.44
2018-12-05T12:24:49.514Z,69.91
2018-12-05T12:25:59.464Z,70.39
2018-12-05T12:27:09.400Z,70.67
2018-12-05T12:28:19.449Z,71.2
2018-12-05T12:29:29.383Z,71.86
2018-12-05T12:30:39.325Z,72.14
2018-12-05T12:31:49.260Z,73.09
2018-12-05T12:32:58.688Z,73.37
2018-12-05T12:34:10.594Z,73.75
2018-12-05T12:35:20.541Z,73.94
2018-12-05T12:36:30.478Z,73.94
2018-12-05T12:37:40.429Z,74.6
2018-12-05T12:38:50.365Z,74.6
2018-12-05T12:40:00.480Z,74.51
2018-12-05T12:41:10.423Z,74.41
2018-12-05T12:42:20.354Z,74.41
2018-12-05T12:43:30.293Z,74.6
2018-12-05T12:44:40.221Z,73.85
2018-12-05T12:45:50.313Z,73.75
2018-12-05T12:47:00.253Z,73.28
2018-12-05T12:48:10.193Z,73.56
2018-12-05T12:49:20.128Z,73.56
2018-12-05T12:50:30.060Z,73.94
2018-12-05T12:51:40.143Z,73.85
2018-12-05T12:52:50.071Z,74.41
2018-12-05T12:53:59.999Z,74.32
2018-12-05T12:55:09.932Z,73.94
2018-12-05T12:56:19.859Z,73.75
2018-12-05T12:57:30.272Z,73.28
2018-12-05T12:58:40.206Z,73.75
2018-12-05T12:59:50.141Z,73.56
2018-12-05T13:01:00.077Z,73.09
2018-12-05T13:02:10.068Z,73.03
2018-12-05T13:03:20.052Z,73.09
2018-12-05T13:04:29.981Z,73.28
2018-12-05T13:05:39.925Z,73.85
2018-12-05T13:06:49.877Z,73.85
2018-12-05T13:07:59.815Z,74.22
2018-12-05T13:09:09.899Z,75.17
2018-12-05T13:10:19.837Z,75.26
2018-12-05T13:11:29.765Z,75.55
2018-12-05T13:12:39.697Z,76.4
2018-12-05T13:13:49.633Z,76.87
2018-12-05T13:14:59.582Z,77.4
2018-12-05T13:16:09.512Z,77.78
2018-12-05T13:17:19.442Z,77.97
2018-12-05T13:18:29.370Z,77.97
2018-12-05T13:19:39.058Z,78.06
2018-12-05T13:20:48.899Z,77.87
2018-12-05T13:21:58.837Z,77.87
2018-12-05T13:23:08.770Z,78.44
2018-12-05T13:24:18.697Z,78.72
2018-12-05T13:25:28.627Z,79.1
2018-12-05T13:26:38.628Z,78.72
2018-12-05T13:27:48.556Z,78.53
2018-12-05T13:28:58.528Z,78.91
2018-12-05T13:30:08.461Z,79.1
2018-12-05T13:31:20.068Z,79.57
2018-12-05T13:32:30.097Z,79.86
2018-12-05T13:33:40.028Z,79.29
2018-12-05T13:34:50.000Z,79.1
2018-12-05T13:35:59.935Z,78.91
2018-12-05T13:37:09.867Z,78.91
2018-12-05T13:38:19.962Z,79.29
2018-12-05T13:39:29.889Z,78.91
2018-12-05T13:40:39.821Z,79.29
2018-12-05T13:41:49.994Z,79.19
2018-12-05T13:42:59.921Z,79.29
2018-12-05T13:44:09.597Z,79.29
2018-12-05T13:45:19.531Z,79.38
2018-12-05T13:46:32.589Z,79.48
2018-12-05T13:47:42.525Z,79.1
2018-12-05T13:48:52.451Z,79.1
2018-12-05T13:50:02.537Z,79.67
2018-12-05T13:51:12.464Z,79.29
2018-12-05T13:52:22.417Z,79.67
2018-12-05T13:53:32.355Z,79.76
2018-12-05T13:54:42.288Z,79.38
2018-12-05T13:55:52.318Z,79.86
2018-12-05T13:57:02.248Z,79.38
2018-12-05T13:58:12.186Z,79.67
2018-12-05T13:59:22.114Z,79.76
2018-12-05T14:00:32.046Z,79.29
2018-12-05T14:01:42.079Z,78.91
2018-12-05T14:02:52.012Z,78.72
2018-12-05T14:04:01.947Z,78.44
2018-12-05T14:05:11.881Z,79
2018-12-05T14:06:21.810Z,78.53
2018-12-05T14:07:32.162Z,79
2018-12-05T14:08:42.186Z,79.67
2018-12-05T14:09:52.123Z,79.67
2018-12-05T14:11:01.810Z,79.29
2018-12-05T14:12:11.757Z,79.76
2018-12-05T14:13:21.790Z,80.14
2018-12-05T14:14:31.466Z,80.05
2018-12-05T14:15:41.394Z,79.95
2018-12-05T14:16:51.325Z,80.33
2018-12-05T14:18:04.816Z,80.71
2018-12-05T14:19:14.865Z,80.62
2018-12-05T14:20:24.826Z,80.14
2018-12-05T14:21:34.762Z,80.05
2018-12-05T14:22:44.695Z,79.95
2018-12-05T14:23:54.624Z,79.67
2018-12-05T14:25:04.658Z,79.67
2018-12-05T14:26:14.599Z,79.86
2018-12-05T14:27:24.274Z,80.05
2018-12-05T14:28:34.318Z,80.71
2018-12-05T14:29:44.254Z,80.33
2018-12-05T14:30:54.338Z,80.52
2018-12-05T14:32:04.279Z,79.95
2018-12-05T14:33:14.213Z,80.9
2018-12-05T14:34:24.150Z,81.09
2018-12-05T14:35:34.089Z,80.71
2018-12-05T14:36:44.171Z,80.43
2018-12-05T14:37:54.102Z,80.99
2018-12-05T14:39:04.030Z,81.09
2018-12-05T14:40:13.968Z,81.09
2018-12-05T14:41:23.901Z,81.56
2018-12-05T14:42:33.985Z,80.9
2018-12-05T14:43:43.912Z,81.27
2018-12-05T14:44:53.855Z,80.57
2018-12-05T14:46:03.782Z,81.46
2018-12-05T14:47:15.043Z,81.37
2018-12-05T14:48:25.136Z,80.85
2018-12-05T14:49:35.066Z,81.52
2018-12-05T14:50:44.996Z,81.74
2018-12-05T14:51:54.923Z,81.71
2018-12-05T14:53:04.855Z,81.99
2018-12-05T14:54:14.837Z,82.09
2018-12-05T14:55:24.763Z,82.09
2018-12-05T14:56:34.777Z,82.46
2018-12-05T14:57:44.705Z,81.42
2018-12-05T14:58:54.645Z,81.52
2018-12-05T15:00:04.691Z,81.65
2018-12-05T15:01:14.631Z,81.56
2018-12-05T15:02:24.571Z,81.09
2018-12-05T15:03:34.509Z,81.65
2018-12-05T15:04:44.440Z,81.46